createdAt,value
2022-11-26T00:02:23.910Z,98106.69
2022-11-26T00:04:53.685Z,98104.30
2022-11-26T00:07:26.017Z,98103.19
2022-11-26T00:09:55.689Z,98099.66
2022-11-26T00:12:31.157Z,98094.81
2022-11-26T00:15:00.117Z,98095.11
2022-11-26T00:17:27.597Z,98100.72
2022-11-26T00:19:55.291Z,98095.16
2022-11-26T00:22:32.285Z,98093.88
2022-11-26T00:25:00.105Z,98099.48
2022-11-26T00:27:28.400Z,98102.41
2022-11-26T00:29:56.533Z,98106.11
2022-11-26T00:32:26.238Z,98103.42
2022-11-26T00:34:54.162Z,98099.97
2022-11-26T00:37:26.109Z,98106.11
2022-11-26T00:39:55.177Z,98108.27
2022-11-26T00:42:23.431Z,98104.59
2022-11-26T00:44:50.951Z,98103.05
2022-11-26T00:47:18.779Z,98100.14
2022-11-26T00:49:46.542Z,98102.06
2022-11-26T00:52:33.617Z,98103.13
2022-11-26T00:55:09.707Z,98104.98
2022-11-26T00:57:37.245Z,98103.09
2022-11-26T01:00:18.672Z,98102.03
2022-11-26T01:02:46.676Z,98098.31
2022-11-26T01:05:14.946Z,98097.79
2022-11-26T01:07:45.776Z,98099.16
2022-11-26T01:10:20.993Z,98097.03
2022-11-26T01:12:49.438Z,98095.66
2022-11-26T01:15:18.477Z,98097.55
2022-11-26T01:17:46.904Z,98100.73
2022-11-26T01:20:31.055Z,98099.41
2022-11-26T01:22:59.284Z,98092.79
2022-11-26T01:25:27.351Z,98096.27
2022-11-26T01:27:55.273Z,98093.39
2022-11-26T01:30:28.381Z,98099.53
2022-11-26T01:32:56.671Z,98101.69
2022-11-26T01:35:24.501Z,98099.06
2022-11-26T01:37:52.426Z,98101.76
2022-11-26T01:40:37.818Z,98103.88
2022-11-26T01:43:26.409Z,98107.12
2022-11-26T01:45:56.332Z,98102.09
2022-11-26T01:48:33.117Z,98104.78
2022-11-26T01:51:07.745Z,98105.61
2022-11-26T01:53:49.624Z,98104.81
2022-11-26T01:56:28.985Z,98100.04
2022-11-26T01:59:20.601Z,98101.89
2022-11-26T02:01:52.658Z,98101.63
2022-11-26T02:04:27.521Z,98101.92
2022-11-26T02:06:56.489Z,98097.95
2022-11-26T02:09:26.500Z,98093.97
2022-11-26T02:11:54.624Z,98100.34
2022-11-26T02:14:30.670Z,98102.76
2022-11-26T02:17:19.137Z,98099.84
2022-11-26T02:20:07.989Z,98109.66
2022-11-26T02:23:07.279Z,98109.66
2022-11-26T02:26:04.401Z,98108.33
2022-11-26T02:29:07.851Z,98108.59
2022-11-26T02:31:59.691Z,98109.13
2022-11-26T02:34:47.581Z,98112.05
2022-11-26T02:37:23.144Z,98118.94
2022-11-26T02:39:51.539Z,98110.72
2022-11-26T02:42:27.032Z,98111.75
2022-11-26T02:45:05.201Z,98110.42
2022-11-26T02:47:34.639Z,98114.13
2022-11-26T02:50:07.745Z,98115.99
2022-11-26T02:52:39.824Z,98115.99
2022-11-26T02:55:10.588Z,98117.84
2022-11-26T02:57:48.301Z,98119.41
2022-11-26T03:00:17.988Z,98121.53
2022-11-26T03:02:59.843Z,98119.41
2022-11-26T03:05:31.600Z,98122.59
2022-11-26T03:08:01.174Z,98124.71
2022-11-26T03:10:30.579Z,98120.20
2022-11-26T03:12:58.654Z,98123.69
2022-11-26T03:15:26.981Z,98131.38
2022-11-26T03:17:54.644Z,98128.98
2022-11-26T03:20:22.449Z,98128.66
2022-11-26T03:22:50.271Z,98127.59
2022-11-26T03:25:18.044Z,98126.80
2022-11-26T03:27:45.795Z,98132.11
2022-11-26T03:30:13.793Z,98134.80
2022-11-26T03:32:41.541Z,98135.33
2022-11-26T03:35:09.604Z,98133.20
2022-11-26T03:37:37.357Z,98136.12
2022-11-26T03:40:07.339Z,98141.92
2022-11-26T03:42:35.756Z,98141.66
2022-11-26T03:45:04.353Z,98149.39
2022-11-26T03:47:31.871Z,98153.90
2022-11-26T03:49:59.697Z,98153.67
2022-11-26T03:52:27.379Z,98160.30
2022-11-26T03:54:55.367Z,98158.48
2022-11-26T03:57:23.222Z,98159.02
2022-11-26T03:59:50.766Z,98161.17
2022-11-26T04:02:18.467Z,98163.83
2022-11-26T04:04:46.279Z,98158.25
2022-11-26T04:07:14.117Z,98159.61
2022-11-26T04:09:41.847Z,98163.06
2022-11-26T04:12:09.517Z,98161.50
2022-11-26T04:14:37.549Z,98164.95
2022-11-26T04:17:05.425Z,98168.97
2022-11-26T04:19:33.359Z,98161.80
2022-11-26T04:22:01.082Z,98163.96
2022-11-26T04:24:28.976Z,98166.09
2022-11-26T04:26:56.572Z,98171.39
2022-11-26T04:29:24.488Z,98169.53
2022-11-26T04:31:52.053Z,98180.95
2022-11-26T04:34:19.743Z,98176.70
2022-11-26T04:36:47.297Z,98181.71
2022-11-26T04:39:15.164Z,98180.12
2022-11-26T04:41:42.750Z,98189.97
2022-11-26T04:44:10.527Z,98191.30
2022-11-26T04:46:38.220Z,98197.67
2022-11-26T04:49:05.750Z,98198.20
2022-11-26T04:51:33.379Z,98199.53
2022-11-26T04:54:03.349Z,98199.50
2022-11-26T04:56:30.422Z,98212.77
2022-11-26T04:58:58.191Z,98207.65
2022-11-26T05:01:26.670Z,98213.79
2022-11-26T05:03:54.500Z,98216.17
2022-11-26T05:06:22.159Z,98219.59
2022-11-26T05:08:49.927Z,98218.19
2022-11-26T05:11:17.922Z,98222.66
2022-11-26T05:13:45.277Z,98218.37
2022-11-26T05:16:12.675Z,98214.09
2022-11-26T05:18:40.447Z,98217.00
2022-11-26T05:21:08.109Z,98223.11
2022-11-26T05:23:35.809Z,98223.91
2022-11-26T05:26:03.629Z,98219.96
2022-11-26T05:28:31.543Z,98223.68
2022-11-26T05:31:02.564Z,98227.66
2022-11-26T05:33:30.614Z,98226.10
2022-11-26T05:35:58.212Z,98234.37
2022-11-26T05:38:25.989Z,98230.43
2022-11-26T05:40:53.458Z,98231.00
2022-11-26T05:43:21.037Z,98227.81
2022-11-26T05:45:48.796Z,98223.30
2022-11-26T05:48:16.706Z,98229.18
2022-11-26T05:50:44.506Z,98228.92
2022-11-26T05:53:12.567Z,98238.47
2022-11-26T05:55:40.564Z,98240.63
2022-11-26T05:58:09.268Z,98244.91
2022-11-26T06:00:36.931Z,98240.67
2022-11-26T06:03:04.990Z,98245.75
2022-11-26T06:05:32.786Z,98243.05
2022-11-26T06:08:00.553Z,98247.03
2022-11-26T06:10:28.372Z,98251.28
2022-11-26T06:12:56.296Z,98248.11
2022-11-26T06:15:24.249Z,98248.33
2022-11-26T06:17:51.876Z,98249.63
2022-11-26T06:20:19.652Z,98253.59
2022-11-26T06:22:47.478Z,98250.63
2022-11-26T06:25:15.285Z,98254.80
2022-11-26T06:27:43.688Z,98258.79
2022-11-26T06:30:12.527Z,98262.05
2022-11-26T06:32:40.165Z,98258.08
2022-11-26T06:35:08.986Z,98255.22
2022-11-26T06:37:36.824Z,98262.97
2022-11-26T06:40:05.695Z,98263.27
2022-11-26T06:42:33.319Z,98266.45
2022-11-26T06:45:00.966Z,98276.02
2022-11-26T06:47:28.630Z,98280.25
2022-11-26T06:49:56.515Z,98276.77
2022-11-26T06:52:26.155Z,98281.77
2022-11-26T06:54:55.436Z,98284.16
2022-11-26T06:57:23.094Z,98284.47
2022-11-26T06:59:51.811Z,98294.59
2022-11-26T07:02:19.905Z,98290.12
2022-11-26T07:04:47.893Z,98288.30
2022-11-26T07:07:15.840Z,98293.13
2022-11-26T07:09:43.947Z,98301.42
2022-11-26T07:12:12.100Z,98308.86
2022-11-26T07:14:40.397Z,98309.62
2022-11-26T07:17:08.481Z,98322.81
2022-11-26T07:19:36.536Z,98312.95
2022-11-26T07:22:04.299Z,98318.56
2022-11-26T07:24:32.261Z,98321.00
2022-11-26T07:26:59.970Z,98320.55
2022-11-26T07:29:27.985Z,98327.52
2022-11-26T07:31:56.091Z,98333.97
2022-11-26T07:34:23.899Z,98329.77
2022-11-26T07:36:56.773Z,98330.59
2022-11-26T07:39:21.493Z,98337.24
2022-11-26T07:41:49.212Z,98339.44
2022-11-26T07:44:16.877Z,98335.76
2022-11-26T07:46:44.568Z,98338.72
2022-11-26T07:49:12.214Z,98344.10
2022-11-26T07:51:40.299Z,98342.31
2022-11-26T07:54:09.386Z,98344.23
2022-11-26T07:56:37.100Z,98349.39
2022-11-26T07:59:04.866Z,98355.83
2022-11-26T08:01:33.307Z,98352.94
2022-11-26T08:04:05.395Z,98360.97
2022-11-26T08:06:34.064Z,98363.10
2022-11-26T08:09:03.294Z,98366.83
2022-11-26T08:11:33.377Z,98366.59
2022-11-26T08:14:08.953Z,98366.88
2022-11-26T08:16:37.225Z,98373.03
2022-11-26T08:19:11.324Z,98370.13
2022-11-26T08:21:41.395Z,98371.23
2022-11-26T08:24:14.021Z,98381.62
2022-11-26T08:26:44.481Z,98374.47
2022-11-26T08:29:14.615Z,98383.55
2022-11-26T08:31:46.345Z,98381.95
2022-11-26T08:34:15.713Z,98388.06
2022-11-26T08:36:45.093Z,98382.72
2022-11-26T08:39:16.694Z,98393.36
2022-11-26T08:41:51.680Z,98394.69
2022-11-26T08:44:15.104Z,98396.84
2022-11-26T08:46:42.958Z,98397.61
2022-11-26T08:49:13.035Z,98398.41
2022-11-26T08:51:41.483Z,98400.54
2022-11-26T08:54:09.878Z,98398.97
2022-11-26T08:56:37.858Z,98399.77
2022-11-26T08:59:06.134Z,98402.73
2022-11-26T09:01:35.023Z,98405.39
2022-11-26T09:04:04.745Z,98405.09
2022-11-26T09:06:36.467Z,98406.66
2022-11-26T09:09:15.068Z,98408.52
2022-11-26T09:11:56.896Z,98411.45
2022-11-26T09:14:31.111Z,98409.61
2022-11-26T09:16:58.924Z,98408.28
2022-11-26T09:19:28.170Z,98410.70
2022-11-26T09:21:56.198Z,98405.44
2022-11-26T09:24:24.275Z,98404.14
2022-11-26T09:26:52.674Z,98407.33
2022-11-26T09:29:22.777Z,98406.30
2022-11-26T09:34:20.458Z,98403.45
2022-11-26T09:36:48.006Z,98402.38
2022-11-26T09:39:17.058Z,98405.84
2022-11-26T09:42:02.279Z,98401.10
2022-11-26T09:45:12.033Z,98406.19
2022-11-26T09:47:45.140Z,98411.50
2022-11-26T09:50:27.508Z,98407.80
2022-11-26T09:53:22.014Z,98414.22
2022-11-26T09:55:53.424Z,98404.38
2022-11-26T09:58:40.750Z,98415.84
2022-11-26T10:01:13.930Z,98413.66
2022-11-26T10:03:41.887Z,98412.59
2022-11-26T10:06:48.402Z,98417.09
2022-11-26T10:09:37.758Z,98417.36
2022-11-26T10:12:50.524Z,98417.89
2022-11-26T10:15:15.522Z,98414.67
2022-11-26T10:18:06.407Z,98419.47
2022-11-26T10:21:26.843Z,98422.92
2022-11-26T10:24:04.744Z,98423.48
2022-11-26T10:26:37.690Z,98423.27
2022-11-26T10:29:28.606Z,98417.42
2022-11-26T10:32:02.501Z,98415.85
2022-11-26T10:34:41.668Z,98412.95
2022-11-26T10:37:10.490Z,98412.17
2022-11-26T10:39:38.200Z,98413.27
2022-11-26T10:42:19.425Z,98416.96
2022-11-26T10:44:49.694Z,98420.13
2022-11-26T10:47:30.715Z,98423.33
2022-11-26T10:50:25.191Z,98424.66
2022-11-26T10:52:38.729Z,98433.23
2022-11-26T10:55:11.933Z,98441.46
2022-11-26T10:57:49.813Z,98438.27
2022-11-26T11:00:40.270Z,98442.02
2022-11-26T11:04:06.685Z,98439.89
2022-11-26T11:06:28.480Z,98432.94
2022-11-26T11:08:56.125Z,98436.13
2022-11-26T11:11:28.115Z,98436.89
2022-11-26T11:13:57.369Z,98441.67
2022-11-26T11:16:33.251Z,98443.80
2022-11-26T11:19:05.357Z,98440.61
2022-11-26T11:21:37.999Z,98442.50
2022-11-26T11:24:25.207Z,98443.33
2022-11-26T11:27:01.319Z,98451.84
2022-11-26T11:33:12.354Z,98444.63
2022-11-26T11:33:14.358Z,98422.20
2022-11-26T11:39:40.282Z,98438.51
2022-11-26T11:42:27.491Z,98432.13
2022-11-26T11:44:58.029Z,98432.89
2022-11-26T11:47:43.702Z,98438.75
2022-11-26T11:50:43.120Z,98442.75
2022-11-26T11:53:40.599Z,98439.26
2022-11-26T11:56:32.295Z,98436.57
2022-11-26T11:59:20.578Z,98433.91
2022-11-26T12:02:21.448Z,98436.59
2022-11-26T12:05:02.580Z,98433.43
2022-11-26T12:08:08.787Z,98423.06
2022-11-26T12:11:10.705Z,98421.47
2022-11-26T12:13:46.538Z,98416.94
2022-11-26T12:16:17.037Z,98412.95
2022-11-26T12:18:50.132Z,98422.59
2022-11-26T12:21:23.274Z,98417.30
2022-11-26T12:24:17.682Z,98415.72
2022-11-26T12:26:56.993Z,98416.00
2022-11-26T12:29:42.011Z,98417.86
2022-11-26T12:32:40.163Z,98418.67
2022-11-26T12:35:34.028Z,98415.77
2022-11-26T12:38:12.975Z,98416.03
2022-11-26T12:41:03.365Z,98413.91
2022-11-26T12:44:00.759Z,98410.16
2022-11-26T12:47:00.862Z,98409.91
2022-11-26T12:50:03.922Z,98410.97
2022-11-26T12:53:06.176Z,98405.66
2022-11-26T12:56:00.926Z,98414.98
2022-11-26T12:58:49.175Z,98415.50
2022-11-26T13:01:17.366Z,98420.80
2022-11-26T13:03:45.470Z,98414.15
2022-11-26T13:06:24.595Z,98408.84
2022-11-26T13:09:31.045Z,98408.84
2022-11-26T13:12:38.605Z,98407.26
2022-11-26T13:15:27.149Z,98407.26
2022-11-26T13:17:57.019Z,98401.67
2022-11-26T13:20:48.487Z,98403.80
2022-11-26T13:23:46.113Z,98405.12
2022-11-26T13:26:48.685Z,98410.99
2022-11-26T13:29:36.579Z,98416.30
2022-11-26T13:32:26.375Z,98410.97
2022-11-26T13:35:36.253Z,98411.48
2022-11-26T13:38:28.104Z,98415.48
2022-11-26T13:41:34.686Z,98411.22
2022-11-26T13:44:14.992Z,98418.95
2022-11-26T13:47:25.123Z,98413.34
2022-11-26T13:50:16.304Z,98416.80
2022-11-26T13:52:58.508Z,98418.38
2022-11-26T13:55:34.332Z,98426.91
2022-11-26T13:58:10.718Z,98426.91
2022-11-26T14:00:39.102Z,98435.69
2022-11-26T14:03:08.942Z,98438.37
2022-11-26T14:06:01.300Z,98438.91
2022-11-26T14:08:42.776Z,98443.97
2022-11-26T14:11:14.427Z,98445.54
2022-11-26T14:13:42.828Z,98445.55
2022-11-26T14:16:10.917Z,98454.07
2022-11-26T14:18:56.277Z,98458.56
2022-11-26T14:21:27.065Z,98458.04
2022-11-26T14:24:04.820Z,98461.77
2022-11-26T14:26:39.360Z,98458.55
2022-11-26T14:29:13.125Z,98467.31
2022-11-26T14:31:54.012Z,98469.97
2022-11-26T14:34:33.349Z,98475.56
2022-11-26T14:37:02.369Z,98477.97
2022-11-26T14:39:31.436Z,98483.00
2022-11-26T14:42:05.568Z,98468.02
2022-11-26T14:44:29.844Z,98493.38
2022-11-26T14:47:05.443Z,98493.65
2022-11-26T14:49:44.366Z,98493.65
2022-11-26T14:52:20.221Z,98490.69
2022-11-26T14:54:54.835Z,98495.48
2022-11-26T14:57:30.928Z,98492.55
2022-11-26T15:00:03.871Z,98488.83
2022-11-26T15:02:35.187Z,98493.12
2022-11-26T15:05:14.155Z,98493.12
2022-11-26T15:07:42.246Z,98494.98
2022-11-26T15:10:20.525Z,98493.09
2022-11-26T15:12:52.092Z,98492.55
2022-11-26T15:15:23.222Z,98498.69
2022-11-26T15:17:58.625Z,98498.15
2022-11-26T15:20:28.094Z,98492.03
2022-11-26T15:22:59.846Z,98496.81
2022-11-26T15:25:32.310Z,98499.21
2022-11-26T15:28:21.999Z,98499.48
2022-11-26T15:31:02.615Z,98494.69
2022-11-26T15:33:35.922Z,98499.72
2022-11-26T15:36:06.413Z,98499.98
2022-11-26T15:38:37.464Z,98500.22
2022-11-26T15:41:16.252Z,98501.82
2022-11-26T15:43:55.480Z,98505.55
2022-11-26T15:46:30.791Z,98506.32
2022-11-26T15:49:06.646Z,98503.12
2022-11-26T15:51:59.795Z,98513.23
2022-11-26T15:54:49.737Z,98512.70
2022-11-26T15:57:08.188Z,98515.91
2022-11-26T15:59:46.706Z,98514.80
2022-11-26T16:02:23.503Z,98512.14
2022-11-26T16:04:57.476Z,98512.95
2022-11-26T16:07:29.003Z,98516.38
2022-11-26T16:10:22.975Z,98517.17
2022-11-26T16:13:19.177Z,98512.65
2022-11-26T16:15:57.860Z,98502.00
2022-11-26T16:18:39.751Z,98509.19
2022-11-26T16:21:15.410Z,98511.85
2022-11-26T16:23:43.262Z,98516.94
2022-11-26T16:26:19.650Z,98517.97
2022-11-26T16:28:48.001Z,98517.73
2022-11-26T16:31:18.146Z,98519.30
2022-11-26T16:33:46.311Z,98516.41
2022-11-26T16:36:28.173Z,98515.88
2022-11-26T16:38:56.661Z,98519.60
2022-11-26T16:41:24.647Z,98522.50
2022-11-26T16:43:52.922Z,98520.11
2022-11-26T16:46:23.903Z,98516.88
2022-11-26T16:48:52.198Z,98519.27
2022-11-26T16:51:21.185Z,98516.88
2022-11-26T16:53:49.247Z,98516.84
2022-11-26T16:56:35.285Z,98518.41
2022-11-26T16:59:06.551Z,98514.63
2022-11-26T17:01:35.521Z,98522.05
2022-11-26T17:04:02.984Z,98521.21
2022-11-26T17:06:33.599Z,98526.53
2022-11-26T17:09:03.291Z,98531.55
2022-11-26T17:11:30.945Z,98527.33
2022-11-26T17:13:58.343Z,98537.70
2022-11-26T17:16:25.971Z,98539.84
2022-11-26T17:18:53.985Z,98536.41
2022-11-26T17:21:22.442Z,98534.02
2022-11-26T17:23:50.970Z,98531.36
2022-11-26T17:26:23.876Z,98539.30
2022-11-26T17:28:51.960Z,98534.52
2022-11-26T17:31:19.898Z,98543.76
2022-11-26T17:33:50.174Z,98544.52
2022-11-26T17:36:20.913Z,98538.39
2022-11-26T17:38:51.095Z,98543.68
2022-11-26T17:41:19.311Z,98549.53
2022-11-26T17:43:46.939Z,98546.08
2022-11-26T17:46:19.536Z,98547.91
2022-11-26T17:48:49.071Z,98544.94
2022-11-26T17:51:17.629Z,98550.80
2022-11-26T17:53:45.522Z,98544.94
2022-11-26T17:56:20.466Z,98546.30
2022-11-26T17:58:48.558Z,98542.09
2022-11-26T18:01:17.189Z,98544.22
2022-11-26T18:03:45.716Z,98542.39
2022-11-26T18:06:17.086Z,98545.58
2022-11-26T18:08:45.857Z,98541.86
2022-11-26T18:11:15.850Z,98540.53
2022-11-26T18:13:44.828Z,98539.23
2022-11-26T18:16:12.282Z,98544.32
2022-11-26T18:18:40.142Z,98544.59
2022-11-26T18:21:08.586Z,98549.38
2022-11-26T18:23:36.101Z,98550.75
2022-11-26T18:26:04.147Z,98546.25
2022-11-26T18:28:32.113Z,98549.22
2022-11-26T18:30:59.573Z,98551.34
2022-11-26T18:33:27.598Z,98552.41
2022-11-26T18:35:55.043Z,98556.63
2022-11-26T18:38:24.784Z,98551.58
2022-11-26T18:41:01.599Z,98557.39
2022-11-26T18:43:31.662Z,98557.62
2022-11-26T18:46:04.301Z,98559.75
2022-11-26T18:48:36.125Z,98560.55
2022-11-26T18:51:05.302Z,98564.81
2022-11-26T18:53:33.697Z,98570.43
2022-11-26T18:56:01.808Z,98568.80
2022-11-26T18:58:30.171Z,98573.33
2022-11-26T19:00:58.178Z,98567.47
2022-11-26T19:03:27.503Z,98579.94
2022-11-26T19:05:55.522Z,98575.45
2022-11-26T19:08:23.753Z,98574.39
2022-11-26T19:10:51.417Z,98581.84
2022-11-26T19:13:19.707Z,98587.96
2022-11-26T19:15:50.268Z,98580.23
2022-11-26T19:18:18.145Z,98585.03
2022-11-26T19:20:50.815Z,98585.30
2022-11-26T19:23:21.092Z,98579.48
2022-11-26T19:25:49.504Z,98583.51
2022-11-26T19:28:17.613Z,98586.97
2022-11-26T19:30:45.314Z,98587.27
2022-11-26T19:33:12.997Z,98580.88
2022-11-26T19:35:41.148Z,98587.30
2022-11-26T19:38:08.742Z,98584.64
2022-11-26T19:40:39.009Z,98576.66
2022-11-26T19:43:06.667Z,98584.34
2022-11-26T19:45:34.273Z,98576.36
2022-11-26T19:48:02.196Z,98581.16
2022-11-26T19:50:29.711Z,98582.78
2022-11-26T19:52:57.132Z,98587.04
2022-11-26T19:55:24.750Z,98584.91
2022-11-26T19:57:52.398Z,98592.36
2022-11-26T20:00:20.942Z,98589.17
2022-11-26T20:02:48.556Z,98588.64
2022-11-26T20:05:16.512Z,98590.50
2022-11-26T20:07:44.793Z,98596.09
2022-11-26T20:10:14.450Z,98599.58
2022-11-26T20:12:42.276Z,98592.93
2022-11-26T20:15:10.969Z,98591.87
2022-11-26T20:17:38.714Z,98591.87
2022-11-26T20:20:07.767Z,98596.13
2022-11-26T20:22:36.958Z,98593.73
2022-11-26T20:25:05.941Z,98587.88
2022-11-26T20:27:37.212Z,98592.40
2022-11-26T20:30:15.013Z,98595.33
2022-11-26T20:32:46.937Z,98599.32
2022-11-26T20:35:21.831Z,98595.06
2022-11-26T20:37:50.679Z,98595.59
2022-11-26T20:40:18.718Z,98605.44
2022-11-26T20:42:46.491Z,98603.58
2022-11-26T20:45:14.860Z,98596.13
2022-11-26T20:47:42.479Z,98599.32
2022-11-26T20:50:10.869Z,98599.58
2022-11-26T20:52:38.792Z,98598.75
2022-11-26T20:55:08.628Z,98601.15
2022-11-26T20:57:39.978Z,98597.95
2022-11-26T21:00:08.915Z,98597.95
2022-11-26T21:02:38.147Z,98595.30
2022-11-26T21:05:07.250Z,98599.84
2022-11-26T21:07:35.326Z,98602.52
2022-11-26T21:10:04.179Z,98592.93
2022-11-26T21:12:32.140Z,98605.70
2022-11-26T21:15:00.015Z,98610.23
2022-11-26T21:17:30.912Z,98612.89
2022-11-26T21:19:59.858Z,98616.62
2022-11-26T21:22:27.833Z,98615.86
2022-11-26T21:24:55.588Z,98612.92
2022-11-26T21:27:23.480Z,98614.26
2022-11-26T21:29:50.952Z,98613.20
2022-11-26T21:32:18.729Z,98611.36
2022-11-26T21:34:46.743Z,98610.03
2022-11-26T21:37:14.425Z,98607.61
2022-11-26T21:39:42.479Z,98611.59
2022-11-26T21:42:10.357Z,98613.73
2022-11-26T21:44:38.179Z,98603.88
2022-11-26T21:47:06.138Z,98609.50
2022-11-26T21:49:34.186Z,98606.84
2022-11-26T21:52:01.915Z,98605.51
2022-11-26T21:54:29.709Z,98610.83
2022-11-26T21:56:57.834Z,98609.73
2022-11-26T21:59:25.851Z,98609.20
2022-11-26T22:01:54.037Z,98607.88
2022-11-26T22:04:21.782Z,98610.27
2022-11-26T22:06:49.628Z,98600.69
2022-11-26T22:09:17.675Z,98612.36
2022-11-26T22:11:46.120Z,98610.53
2022-11-26T22:14:15.613Z,98604.11
2022-11-26T22:16:44.058Z,98609.97
2022-11-26T22:19:11.752Z,98610.23
2022-11-26T22:21:42.128Z,98603.58
2022-11-26T22:24:19.624Z,98607.03
2022-11-26T22:26:47.904Z,98610.23
2022-11-26T22:29:17.832Z,98601.68
2022-11-26T22:31:47.687Z,98610.16
2022-11-26T22:34:18.210Z,98603.77
2022-11-26T22:36:47.240Z,98600.31
2022-11-26T22:39:17.956Z,98605.90
2022-11-26T22:41:47.779Z,98603.23
2022-11-26T22:44:16.833Z,98603.47
2022-11-26T22:46:45.382Z,98600.80
2022-11-26T22:49:17.366Z,98599.70
2022-11-26T22:51:46.929Z,98600.50
2022-11-26T22:54:17.690Z,98595.17
2022-11-26T22:56:45.496Z,98594.08
2022-11-26T22:59:16.515Z,98597.04
2022-11-26T23:01:44.663Z,98574.51
2022-11-26T23:04:12.803Z,98590.59
2022-11-26T23:06:40.841Z,98597.77
2022-11-26T23:09:09.445Z,98599.63
2022-11-26T23:11:40.205Z,98600.16
2022-11-26T23:14:10.858Z,98599.63
2022-11-26T23:16:41.509Z,98608.94
2022-11-26T23:19:11.848Z,98602.02
2022-11-26T23:21:41.192Z,98608.38
2022-11-26T23:24:09.762Z,98602.78
2022-11-26T23:26:39.266Z,98603.58
2022-11-26T23:29:08.433Z,98606.01
2022-11-26T23:31:40.605Z,98602.55
2022-11-26T23:34:09.573Z,98591.53
2022-11-26T23:36:38.352Z,98600.91
2022-11-26T23:39:10.123Z,98597.69
2022-11-26T23:41:38.154Z,98598.70
2022-11-26T23:44:05.906Z,98597.91
2022-11-26T23:46:37.002Z,98597.64
2022-11-26T23:49:04.896Z,98587.42
2022-11-26T23:51:34.076Z,98593.35
2022-11-26T23:54:01.885Z,98597.07
2022-11-26T23:56:33.117Z,98599.73
2022-11-26T23:59:04.252Z,98597.60
